Time;durP1;ratioP1;P1;durP2;ratioP2;P2;SDS_P1;SDS_P2;PMS_P1;PMS_P2;Temp;Humidity;BMP_temperature;BMP_pressure;BME280_temperature;BME280_humidity;BME280_pressure;Samples;Min_cycle;Max_cycle;Signal;HPM_P1;HPM_P2
2022/04/02 00:00:41;;;;;;;9.23;6.47;;;;;;;3.97;74.26;99918.16;4993270;28;20406;-49
2022/04/02 00:03:09;;;;;;;7.93;6.75;;;;;;;3.95;74.10;99906.59;4997687;28;20058;-48
2022/04/02 00:05:36;;;;;;;9.07;6.78;;;;;;;3.98;74.30;99914.31;4996249;28;20367;-49
2022/04/02 00:08:05;;;;;;;9.15;6.93;;;;;;;3.97;74.29;99913.50;5010460;28;20403;-49
2022/04/02 00:10:33;;;;;;;9.52;6.97;;;;;;;3.96;73.64;99922.03;5014752;28;20061;-48
2022/04/02 00:13:00;;;;;;;8.27;6.72;;;;;;;3.91;74.01;99909.09;5012125;28;20053;-48
2022/04/02 00:15:27;;;;;;;7.78;6.70;;;;;;;3.82;73.90;99910.78;5014637;28;20060;-49
2022/04/02 00:17:54;;;;;;;8.73;6.53;;;;;;;3.88;73.60;99908.84;5005353;28;20380;-49
2022/04/02 00:20:24;;;;;;;8.50;6.38;;;;;;;3.92;73.88;99907.16;4995201;28;20113;-47
2022/04/02 00:25:39;;;;;;;8.68;6.85;;;;;;;3.78;74.00;99915.22;5013726;28;20423;-48
2022/04/02 00:28:06;;;;;;;8.48;6.85;;;;;;;3.83;74.31;99917.97;5014750;28;20057;-49
2022/04/02 00:30:33;;;;;;;11.07;7.57;;;;;;;3.86;73.61;99906.38;4995914;28;20372;-50
2022/04/02 00:33:01;;;;;;;11.07;8.32;;;;;;;3.85;73.60;99915.75;4994752;28;20054;-50
2022/04/02 00:35:28;;;;;;;10.00;7.80;;;;;;;3.66;73.11;99919.13;4998660;28;20050;-48
2022/04/02 00:37:56;;;;;;;8.45;7.47;;;;;;;3.75;73.75;99913.84;4998192;28;20426;-51
2022/04/02 00:40:26;;;;;;;11.07;8.32;;;;;;;3.79;73.33;99911.38;4997668;28;20046;-48
2022/04/02 00:42:54;;;;;;;9.10;7.03;;;;;;;3.83;73.64;99912.44;4999206;28;20046;-48
2022/04/02 00:45:22;;;;;;;12.32;8.57;;;;;;;3.74;73.30;99914.13;4994385;28;20503;-47
2022/04/02 00:47:49;;;;;;;8.55;6.85;;;;;;;3.77;72.98;99919.09;4994785;28;20502;-49
2022/04/02 00:50:17;;;;;;;7.45;6.75;;;;;;;3.73;73.33;99920.75;5001451;28;20075;-48
2022/04/02 00:52:44;;;;;;;9.77;6.90;;;;;;;3.61;73.23;99921.94;5014125;28;20046;-49
2022/04/02 00:55:12;;;;;;;9.35;7.38;;;;;;;3.68;73.17;99920.81;5013758;28;20065;-48
2022/04/02 00:57:40;;;;;;;8.02;6.22;;;;;;;3.73;73.49;99918.00;4999658;28;20057;-49
2022/04/02 01:00:10;;;;;;;8.18;7.00;;;;;;;3.73;73.40;99918.81;4994743;28;20061;-48
2022/04/02 01:02:39;;;;;;;8.82;6.18;;;;;;;3.76;73.65;99922.94;5013386;28;20061;-48
2022/04/02 01:05:08;;;;;;;9.30;6.43;;;;;;;3.79;73.82;99917.69;5007056;28;20051;-48
2022/04/02 01:07:39;;;;;;;9.07;6.90;;;;;;;3.76;72.91;99920.19;5004947;28;20165;-48
2022/04/02 01:10:07;;;;;;;7.55;6.10;;;;;;;3.75;73.31;99929.56;5013667;28;20515;-50
2022/04/02 01:12:34;;;;;;;9.55;6.50;;;;;;;3.78;72.63;99926.25;5008266;28;20415;-47
2022/04/02 01:15:02;;;;;;;10.18;5.93;;;;;;;3.77;72.96;99930.13;4994202;28;20058;-48
2022/04/02 01:17:31;;;;;;;8.55;5.43;;;;;;;3.75;72.91;99935.06;4993706;28;20054;-47
2022/04/02 01:19:58;;;;;;;8.00;5.80;;;;;;;3.75;72.24;99933.13;5004798;28;20058;-48
2022/04/02 01:22:27;;;;;;;7.47;5.00;;;;;;;3.64;72.29;99935.13;4999078;28;20074;-48
2022/04/02 01:24:54;;;;;;;6.53;5.05;;;;;;;3.73;72.11;99935.34;5008616;28;20054;-50
2022/04/02 01:27:23;;;;;;;8.20;5.63;;;;;;;3.77;72.02;99936.44;5013035;28;20058;-50
2022/04/02 01:29:51;;;;;;;6.43;5.40;;;;;;;3.78;72.70;99931.75;5012388;28;20050;-51
2022/04/02 01:32:18;;;;;;;5.50;4.93;;;;;;;3.78;72.50;99937.25;5013375;28;20513;-50
2022/04/02 01:34:45;;;;;;;7.20;5.03;;;;;;;3.81;72.56;99936.72;4999454;28;20054;-48
2022/04/02 01:37:15;;;;;;;8.27;5.43;;;;;;;3.82;72.52;99938.34;4996917;28;20053;-49
2022/04/02 01:39:44;;;;;;;6.82;4.63;;;;;;;3.84;72.82;99936.97;5012639;28;20077;-48
2022/04/02 01:42:13;;;;;;;7.20;4.85;;;;;;;3.85;72.72;99937.78;5013074;28;20057;-48
2022/04/02 01:44:41;;;;;;;8.85;5.15;;;;;;;3.81;72.61;99943.03;5012356;28;20054;-51
2022/04/02 01:47:08;;;;;;;6.75;5.00;;;;;;;3.81;72.67;99936.72;5002453;28;20046;-48
2022/04/02 01:49:36;;;;;;;8.02;4.28;;;;;;;3.74;72.11;99942.53;4993073;28;20062;-49
2022/04/02 01:52:07;;;;;;;6.30;4.53;;;;;;;3.70;72.18;99941.44;4995806;28;20482;-50
2022/04/02 01:54:34;;;;;;;7.20;5.00;;;;;;;3.64;72.11;99948.88;5010816;28;20072;-49
2022/04/02 01:57:03;;;;;;;7.35;4.28;;;;;;;3.72;72.17;99944.75;5012508;28;20049;-48
2022/04/02 01:59:31;;;;;;;8.13;3.92;;;;;;;3.79;71.90;99931.47;5012234;28;20497;-47
2022/04/02 02:01:58;;;;;;;6.38;4.05;;;;;;;3.80;71.94;99940.56;5002053;28;20050;-49
2022/04/02 02:04:26;;;;;;;6.63;4.43;;;;;;;3.74;71.38;99939.78;4993198;28;20061;-50
2022/04/02 02:06:53;;;;;;;5.43;3.67;;;;;;;3.80;71.38;99946.06;4993747;28;20053;-48
2022/04/02 02:09:21;;;;;;;6.72;4.25;;;;;;;3.85;71.26;99941.34;5008713;28;20053;-49
2022/04/02 02:11:48;;;;;;;5.57;4.00;;;;;;;3.86;71.16;99939.41;5007854;28;20057;-51
2022/04/02 02:14:17;;;;;;;6.03;3.90;;;;;;;3.85;71.37;99946.88;4993191;28;20054;-48
2022/04/02 02:16:45;;;;;;;6.13;3.70;;;;;;;3.89;71.41;99952.66;5009279;28;20064;-47
2022/04/02 02:19:12;;;;;;;6.55;3.88;;;;;;;3.94;71.87;99952.63;5011713;28;20057;-50
2022/04/02 02:21:39;;;;;;;7.43;4.22;;;;;;;3.93;71.19;99950.16;5011754;28;20058;-49
2022/04/02 02:24:08;;;;;;;6.45;3.83;;;;;;;3.96;71.04;99939.38;5011762;28;20533;-52
2022/04/02 02:26:37;;;;;;;6.95;4.10;;;;;;;3.94;71.56;99946.28;5011992;28;20054;-48
2022/04/02 02:29:06;;;;;;;7.00;3.80;;;;;;;3.94;71.42;99940.78;5006758;28;20126;-49
2022/04/02 02:31:35;;;;;;;7.05;3.80;;;;;;;4.00;71.67;99945.97;4992667;28;20054;-47
2022/04/02 02:36:49;;;;;;;6.45;3.83;;;;;;;3.98;71.01;99947.38;4999367;28;20062;-47
2022/04/02 02:39:16;;;;;;;5.82;3.72;;;;;;;3.99;70.84;99944.34;5008835;28;20049;-50
2022/04/02 02:41:44;;;;;;;5.88;3.70;;;;;;;4.01;70.68;99958.66;5011451;28;20102;-50
2022/04/02 02:44:11;;;;;;;5.72;3.13;;;;;;;4.01;71.15;99947.63;5001416;28;20061;-50
2022/04/02 02:46:40;;;;;;;8.35;4.68;;;;;;;4.04;70.04;99954.50;5000839;28;20506;-49
2022/04/02 02:49:07;;;;;;;5.40;3.65;;;;;;;4.03;69.71;99956.44;5010892;28;20054;-47
2022/04/02 02:51:34;;;;;;;5.50;3.63;;;;;;;4.05;70.39;99951.47;5011970;28;20475;-51
2022/04/02 02:54:02;;;;;;;5.93;3.85;;;;;;;4.02;70.24;99949.25;5013269;28;20487;-50
2022/04/02 02:56:29;;;;;;;5.90;4.00;;;;;;;4.00;69.90;99948.72;5015205;28;20085;-49
2022/04/02 02:58:57;;;;;;;5.57;4.30;;;;;;;3.88;69.69;99948.22;5016037;28;20050;-49
2022/04/02 03:01:24;;;;;;;6.13;3.83;;;;;;;3.96;68.99;99950.41;5015542;28;20046;-52
2022/04/02 03:03:53;;;;;;;4.25;3.05;;;;;;;3.97;68.75;99951.22;5014860;28;20058;-48
2022/04/02 03:06:20;;;;;;;6.75;3.50;;;;;;;3.91;68.69;99953.19;4998485;28;20050;-50
2022/04/02 03:08:47;;;;;;;6.85;3.30;;;;;;;3.92;68.84;99954.81;5014449;28;20467;-49
2022/04/02 03:11:15;;;;;;;5.20;3.05;;;;;;;3.93;68.64;99953.72;5015623;28;20072;-49
2022/04/02 03:13:42;;;;;;;6.90;3.05;;;;;;;3.71;66.52;99956.84;5015112;28;20402;-51
2022/04/02 03:16:09;;;;;;;5.22;2.88;;;;;;;3.77;67.85;99960.41;5015400;28;20049;-49
2022/04/02 03:18:37;;;;;;;6.90;3.13;;;;;;;3.79;67.56;99966.47;5015279;28;20065;-48
2022/04/02 03:21:05;;;;;;;4.85;3.08;;;;;;;3.76;66.25;99969.75;5015431;28;20060;-49
2022/04/02 03:23:33;;;;;;;3.63;2.55;;;;;;;3.71;66.88;99969.81;5013762;28;20060;-48
2022/04/02 03:26:00;;;;;;;4.97;2.83;;;;;;;3.70;66.55;99968.97;5015351;28;20049;-48
2022/04/02 03:28:27;;;;;;;4.32;2.50;;;;;;;3.70;66.67;99974.50;5013319;28;20483;-50
2022/04/02 03:30:55;;;;;;;4.07;2.40;;;;;;;3.56;67.02;99973.44;5010621;28;20053;-51
2022/04/02 03:33:22;;;;;;;4.65;2.50;;;;;;;3.60;66.84;99977.28;5015185;28;20057;-47
2022/04/02 03:35:50;;;;;;;4.80;2.30;;;;;;;3.64;66.92;99981.94;5010203;28;20148;-49
2022/04/02 03:38:18;;;;;;;3.65;2.30;;;;;;;3.68;66.66;99975.88;5014223;28;20049;-51
2022/04/02 03:40:46;;;;;;;4.93;2.50;;;;;;;3.62;66.40;99978.63;5014778;28;20430;-49
2022/04/02 03:43:13;;;;;;;5.40;2.58;;;;;;;3.65;65.65;99971.75;5014047;28;20057;-48
2022/04/02 03:45:41;;;;;;;3.65;2.40;;;;;;;3.59;65.74;99976.47;5014098;28;20054;-47
2022/04/02 03:48:09;;;;;;;4.45;2.40;;;;;;;3.62;66.98;99984.16;5015099;28;20479;-50
2022/04/02 03:50:36;;;;;;;5.40;2.65;;;;;;;3.60;66.97;99982.78;5014282;28;20046;-47
2022/04/02 03:53:03;;;;;;;3.15;2.30;;;;;;;3.57;65.90;99984.19;5014157;28;20054;-48
2022/04/02 03:55:32;;;;;;;4.03;2.63;;;;;;;3.54;65.84;99978.41;5009551;28;20458;-48
2022/04/02 03:58:00;;;;;;;3.22;2.40;;;;;;;3.51;66.26;99987.19;4999282;28;20050;-49
2022/04/02 04:00:27;;;;;;;3.47;2.40;;;;;;;3.48;66.12;99996.84;5014555;28;20057;-48
2022/04/02 04:02:54;;;;;;;5.15;2.40;;;;;;;3.47;65.34;99997.16;5002305;28;20077;-48
2022/04/02 04:05:23;;;;;;;5.72;2.75;;;;;;;3.49;65.38;100000.44;4997395;28;20403;-47
2022/04/02 04:07:50;;;;;;;3.63;2.42;;;;;;;3.52;65.38;100002.63;5008268;28;20056;-49
2022/04/02 04:10:17;;;;;;;3.45;2.00;;;;;;;3.50;64.76;100002.91;5014794;28;20483;-52
2022/04/02 04:12:47;;;;;;;4.47;2.17;;;;;;;3.47;64.75;100002.66;5014653;28;20065;-49
2022/04/02 04:15:14;;;;;;;4.03;2.33;;;;;;;3.40;65.44;100003.75;4999516;28;20050;-48
2022/04/02 04:17:42;;;;;;;5.15;2.33;;;;;;;3.41;65.37;100007.34;4995021;28;20406;-49
2022/04/02 04:20:11;;;;;;;6.13;2.53;;;;;;;3.37;64.99;100009.81;4999908;28;20053;-49
2022/04/02 04:22:38;;;;;;;5.03;2.42;;;;;;;3.41;64.56;100015.59;5009802;28;20054;-47
2022/04/02 04:25:09;;;;;;;3.33;2.17;;;;;;;3.29;64.69;100015.06;4995463;28;20061;-48
2022/04/02 04:27:37;;;;;;;2.92;2.17;;;;;;;3.23;64.83;100012.31;4994478;28;20054;-50
2022/04/02 04:30:07;;;;;;;3.83;2.20;;;;;;;3.31;65.28;100016.44;5012428;28;20505;-48
2022/04/02 04:32:35;;;;;;;3.42;2.03;;;;;;;3.31;65.31;100019.19;5014120;28;20491;-48
2022/04/02 04:35:02;;;;;;;3.92;2.88;;;;;;;3.30;64.85;100022.19;5009615;28;20057;-50
2022/04/02 04:37:29;;;;;;;6.32;2.75;;;;;;;3.20;65.49;100017.56;4999761;28;20061;-48
2022/04/02 04:39:57;;;;;;;3.85;2.58;;;;;;;3.26;64.87;100030.22;5000790;28;20058;-46
2022/04/02 04:42:24;;;;;;;3.58;2.55;;;;;;;3.20;65.13;100037.63;4994618;28;20054;-48
2022/04/02 04:44:51;;;;;;;2.80;2.08;;;;;;;3.17;65.02;100029.09;5013853;28;20049;-47
2022/04/02 04:47:20;;;;;;;3.40;2.45;;;;;;;3.19;65.20;100038.75;5002083;28;20063;-48
2022/04/02 04:49:47;;;;;;;4.15;2.28;;;;;;;3.19;64.32;100041.50;4994562;28;20065;-48
2022/04/02 04:52:15;;;;;;;4.97;2.60;;;;;;;3.21;65.43;100042.06;4998989;28;20052;-54
2022/04/02 04:54:42;;;;;;;3.63;2.28;;;;;;;3.22;65.03;100051.13;5011658;28;20042;-49
2022/04/02 04:57:09;;;;;;;5.68;2.92;;;;;;;3.23;64.35;100053.59;4996575;28;20483;-51
2022/04/02 04:59:36;;;;;;;4.10;3.08;;;;;;;3.22;64.96;100051.94;4994413;28;20051;-48
2022/04/02 05:02:04;;;;;;;4.70;3.10;;;;;;;3.24;64.98;100065.44;5003697;28;20050;-48
2022/04/02 05:04:33;;;;;;;3.53;2.47;;;;;;;3.24;64.93;100063.50;5013411;28;20053;-47
2022/04/02 05:07:01;;;;;;;4.18;2.42;;;;;;;3.17;63.93;100057.47;5012980;28;20053;-50
2022/04/02 05:09:29;;;;;;;3.78;2.65;;;;;;;3.14;64.07;100059.94;5013897;28;20061;-49
2022/04/02 05:11:58;;;;;;;3.60;2.42;;;;;;;3.13;64.66;100069.28;5013811;28;20050;-49
2022/04/02 05:14:25;;;;;;;3.65;2.42;;;;;;;3.20;64.58;100069.84;5013839;28;20064;-47
2022/04/02 05:16:53;;;;;;;4.43;2.65;;;;;;;3.24;65.03;100071.75;5012630;28;20065;-47
2022/04/02 05:19:21;;;;;;;4.00;2.60;;;;;;;3.24;63.53;100069.00;5013868;28;20558;-52
2022/04/02 05:21:50;;;;;;;7.47;2.67;;;;;;;3.25;62.72;100072.56;4999879;28;20061;-48
2022/04/02 05:24:18;;;;;;;4.70;2.70;;;;;;;3.15;63.84;100073.41;5007239;28;20053;-49
2022/04/02 05:26:47;;;;;;;3.97;2.42;;;;;;;3.21;63.66;100071.47;5013141;28;20060;-48
2022/04/02 05:29:15;;;;;;;3.65;2.45;;;;;;;3.25;63.92;100070.69;5005735;28;20065;-51
2022/04/02 05:31:44;;;;;;;3.15;2.25;;;;;;;3.27;64.36;100077.81;4993571;28;20058;-52
2022/04/02 05:34:12;;;;;;;4.43;2.67;;;;;;;3.31;64.21;100088.00;4999922;28;20061;-49
2022/04/02 05:36:41;;;;;;;5.65;3.10;;;;;;;3.34;64.23;100089.38;5011517;28;20490;-48
2022/04/02 05:39:10;;;;;;;4.05;2.60;;;;;;;3.37;63.21;100086.88;5012768;28;20057;-49
2022/04/02 05:41:37;;;;;;;4.60;3.00;;;;;;;3.41;63.35;100098.19;5012039;28;20071;-48
2022/04/02 05:44:05;;;;;;;4.32;2.85;;;;;;;3.41;63.30;100098.19;4993593;28;20057;-52
2022/04/02 05:46:32;;;;;;;4.40;2.85;;;;;;;3.47;63.12;100097.09;4994643;28;20054;-48
2022/04/02 05:49:00;;;;;;;4.85;2.90;;;;;;;3.49;62.80;100105.06;5012702;28;20058;-54
2022/04/02 05:51:27;;;;;;;3.83;2.65;;;;;;;3.56;62.82;100106.44;5013145;28;20054;-48
2022/04/02 05:53:54;;;;;;;3.63;2.60;;;;;;;3.56;62.63;100100.09;5004385;28;20054;-52
2022/04/02 05:56:23;;;;;;;4.05;2.65;;;;;;;3.59;62.46;100103.13;4997801;28;20065;-48
2022/04/02 05:58:51;;;;;;;6.80;3.25;;;;;;;3.56;62.63;100116.63;5011960;28;20526;-48
2022/04/02 06:01:19;;;;;;;4.38;2.63;;;;;;;3.68;61.98;100113.59;5012192;28;20050;-48
2022/04/02 06:03:49;;;;;;;4.10;2.70;;;;;;;3.77;62.59;100109.97;5007084;28;20050;-52
2022/04/02 06:06:16;;;;;;;5.30;3.60;;;;;;;3.83;62.29;100113.56;4994158;28;20050;-48
2022/04/02 06:08:44;;;;;;;4.63;2.70;;;;;;;3.96;62.88;100118.47;5007906;28;20056;-49
2022/04/02 06:11:11;;;;;;;4.55;2.70;;;;;;;4.14;62.26;100124.53;5009619;28;20072;-52
2022/04/02 06:13:40;;;;;;;4.60;3.15;;;;;;;4.15;61.25;100126.16;4994290;28;20054;-49
2022/04/02 06:16:08;;;;;;;4.15;2.85;;;;;;;4.09;61.44;100124.50;5001908;28;20050;-49
2022/04/02 06:18:36;;;;;;;5.32;3.63;;;;;;;4.23;60.49;100126.41;4998587;28;20062;-49
2022/04/02 06:21:03;;;;;;;6.10;4.65;;;;;;;4.36;60.49;100133.25;5004685;28;20061;-47
2022/04/02 06:23:31;;;;;;;7.85;5.65;;;;;;;4.50;59.68;100135.41;5007910;28;20061;-48
2022/04/02 06:25:58;;;;;;;8.05;5.78;;;;;;;4.63;58.79;100134.78;5001028;28;20046;-49
2022/04/02 06:28:26;;;;;;;6.22;4.50;;;;;;;4.58;59.14;100140.34;4992039;28;20054;-49
2022/04/02 06:30:56;;;;;;;4.30;3.17;;;;;;;4.67;57.97;100149.69;4992164;28;20061;-51
2022/04/02 06:33:23;;;;;;;4.50;3.10;;;;;;;4.68;58.41;100146.63;4995825;28;20061;-51
2022/04/02 06:35:50;;;;;;;4.43;3.08;;;;;;;4.69;58.38;100150.22;5008345;28;20050;-49
2022/04/02 06:38:18;;;;;;;3.45;2.70;;;;;;;4.83;58.15;100158.69;5010151;28;20053;-50
2022/04/02 06:40:45;;;;;;;4.70;3.10;;;;;;;4.92;57.95;100158.94;5004710;28;20046;-48
2022/04/02 06:43:13;;;;;;;6.05;2.90;;;;;;;5.01;57.46;100158.03;4993324;28;20069;-50
2022/04/02 06:45:40;;;;;;;4.63;3.00;;;;;;;5.07;57.03;100156.91;4994990;28;20045;-52
2022/04/02 06:48:09;;;;;;;4.20;2.83;;;;;;;5.16;56.75;100161.81;5011771;28;20054;-51
2022/04/02 06:50:37;;;;;;;4.73;3.10;;;;;;;5.21;56.00;100165.38;5010168;28;20046;-49
2022/04/02 06:53:04;;;;;;;6.07;3.20;;;;;;;5.28;55.75;100168.63;5003830;28;20060;-48
2022/04/02 06:55:32;;;;;;;6.38;3.20;;;;;;;5.29;56.20;100167.53;4998798;28;20069;-49
2022/04/02 06:58:00;;;;;;;3.97;2.85;;;;;;;5.32;55.71;100168.06;5010938;28;20061;-50
2022/04/02 07:00:28;;;;;;;5.15;3.42;;;;;;;5.38;55.54;100169.69;5009119;28;20050;-50
2022/04/02 07:02:55;;;;;;;4.35;2.70;;;;;;;5.43;55.39;100169.66;5009959;28;20058;-48
2022/04/02 07:05:24;;;;;;;4.80;3.17;;;;;;;5.50;55.35;100178.41;5011046;28;20058;-51
2022/04/02 07:07:52;;;;;;;4.30;2.78;;;;;;;5.58;54.50;100180.56;5010807;28;20065;-52
2022/04/02 07:10:21;;;;;;;4.45;2.80;;;;;;;5.56;54.81;100180.03;4995740;28;20054;-50
2022/04/02 07:12:48;;;;;;;3.42;2.42;;;;;;;5.69;54.29;100184.06;5004452;28;20046;-48
2022/04/02 07:15:15;;;;;;;4.57;2.85;;;;;;;5.78;53.57;100176.00;5010710;28;20050;-48
2022/04/02 07:17:43;;;;;;;5.75;2.92;;;;;;;5.75;54.36;100190.38;5005520;28;20066;-49
2022/04/02 07:20:12;;;;;;;5.05;3.03;;;;;;;5.87;54.35;100197.19;5002930;28;20053;-50
2022/04/02 07:22:45;;;;;;;4.65;2.88;;;;;;;5.84;54.05;100197.78;5011034;28;20065;-51
2022/04/02 07:25:13;;;;;;;3.60;2.67;;;;;;;5.91;53.34;100200.19;5006108;28;20054;-50
2022/04/02 07:27:41;;;;;;;3.85;2.95;;;;;;;6.18;53.18;100198.88;5000116;28;20057;-48
2022/04/02 07:30:11;;;;;;;4.22;3.25;;;;;;;6.27;51.99;100205.41;5005243;28;20046;-50
2022/04/02 07:32:38;;;;;;;5.07;3.50;;;;;;;6.40;52.09;100206.66;5010150;28;20057;-52
2022/04/02 07:35:06;;;;;;;5.15;3.80;;;;;;;6.31;53.41;100203.72;5010038;28;20519;-52
2022/04/02 07:37:50;;;;;;;4.70;3.53;;;;;;;6.65;52.37;100213.84;5006525;28;20053;-51
2022/04/02 07:40:20;;;;;;;6.70;3.22;;;;;;;6.81;51.13;100215.31;5004474;28;20050;-48
2022/04/02 07:43:01;;;;;;;5.25;3.28;;;;;;;6.93;51.21;100216.84;5013019;28;20045;-47
2022/04/02 07:45:32;;;;;;;5.53;3.53;;;;;;;7.16;51.75;100212.38;4995649;28;20058;-48
2022/04/02 07:48:00;;;;;;;5.35;3.40;;;;;;;7.42;50.36;100207.31;5011139;28;20534;-50
2022/04/02 07:50:28;;;;;;;7.75;3.63;;;;;;;7.60;50.78;100208.41;5014492;28;20069;-48
2022/04/02 07:52:57;;;;;;;4.93;2.95;;;;;;;7.71;48.70;100218.25;5012297;28;20410;-49
2022/04/02 07:55:28;;;;;;;3.97;3.00;;;;;;;7.81;48.91;100215.31;5010355;28;20053;-52
2022/04/02 07:58:02;;;;;;;4.75;3.20;;;;;;;7.87;48.59;100224.34;5001438;28;20050;-48
2022/04/02 08:00:29;;;;;;;4.70;3.08;;;;;;;8.15;48.04;100228.03;5000152;28;20050;-50
2022/04/02 08:02:57;;;;;;;3.75;2.63;;;;;;;8.49;47.30;100224.94;5013125;28;20054;-50
2022/04/02 08:05:24;;;;;;;3.97;2.50;;;;;;;8.54;47.34;100233.16;5013662;28;20057;-50
2022/04/02 08:07:55;;;;;;;4.60;2.58;;;;;;;8.74;47.00;100231.97;5010738;28;20058;-50
2022/04/02 08:10:25;;;;;;;4.78;3.22;;;;;;;9.31;45.23;100233.56;5013055;28;20057;-49
2022/04/02 08:12:54;;;;;;;3.72;2.20;;;;;;;9.76;44.00;100219.72;5012585;28;20053;-49
2022/04/02 08:15:23;;;;;;;3.27;2.63;;;;;;;9.82;44.14;100231.56;5008407;28;20479;-50
2022/04/02 08:17:53;;;;;;;4.70;2.50;;;;;;;10.33;43.31;100235.84;5013760;28;20494;-54
2022/04/02 08:20:21;;;;;;;5.30;3.00;;;;;;;10.87;42.27;100239.38;5009930;28;20053;-52
2022/04/02 08:22:49;;;;;;;3.97;2.28;;;;;;;11.10;41.43;100228.97;5009199;28;20049;-49
2022/04/02 08:25:17;;;;;;;4.82;2.50;;;;;;;11.56;40.77;100230.34;5004551;28;20050;-51
2022/04/02 08:28:02;;;;;;;3.50;2.47;;;;;;;11.96;40.22;100241.38;5006543;28;20060;-50
2022/04/02 08:30:33;;;;;;;3.53;2.40;;;;;;;12.38;38.46;100249.22;5011960;28;20778;-50
2022/04/02 08:33:14;;;;;;;3.83;2.50;;;;;;;12.92;37.11;100243.94;5013882;28;20049;-51
2022/04/02 08:35:51;;;;;;;3.72;2.35;;;;;;;13.24;36.55;100249.22;5010713;28;20054;-50
2022/04/02 08:38:28;;;;;;;3.97;2.40;;;;;;;13.55;36.42;100244.09;5005539;28;20060;-49
2022/04/02 08:41:21;;;;;;;3.10;2.58;;;;;;;14.09;36.07;100251.72;5008423;28;20073;-52
2022/04/02 08:44:57;;;;;;;3.88;2.60;;;;;;;14.63;34.93;100241.63;5008240;28;20065;-50
2022/04/02 08:48:05;;;;;;;3.35;2.47;;;;;;;15.11;33.08;100242.84;4999553;28;20053;-52
2022/04/02 08:50:37;;;;;;;4.20;2.85;;;;;;;15.34;32.99;100244.00;4996052;28;20172;-54
2022/04/02 08:53:17;;;;;;;3.65;2.55;;;;;;;15.79;32.71;100245.84;5008523;28;20061;-53
2022/04/02 08:55:48;;;;;;;4.15;2.58;;;;;;;15.95;31.01;100243.06;5013474;28;20058;-51
2022/04/02 08:58:58;;;;;;;2.67;2.30;;;;;;;16.24;31.56;100253.16;5013577;28;20065;-52
2022/04/02 09:01:27;;;;;;;3.53;2.53;;;;;;;16.64;30.53;100255.03;5004535;28;20052;-52
2022/04/02 09:04:38;;;;;;;4.65;2.50;;;;;;;16.68;30.53;100266.38;5006710;28;20061;-50
2022/04/02 09:07:53;;;;;;;4.45;2.50;;;;;;;16.22;30.00;100263.94;5004586;28;20490;-51
2022/04/02 09:11:02;;;;;;;4.25;2.38;;;;;;;16.48;29.49;100271.06;5012528;28;20053;-51
2022/04/02 09:14:12;;;;;;;3.47;2.65;;;;;;;16.32;30.29;100276.66;5013206;28;20061;-53
2022/04/02 09:17:01;;;;;;;2.70;2.22;;;;;;;16.51;30.02;100289.22;5005678;28;20054;-50
2022/04/02 09:19:50;;;;;;;4.50;2.30;;;;;;;16.50;29.58;100287.56;5001693;28;20058;-48
2022/04/02 09:22:31;;;;;;;3.33;2.85;;;;;;;16.36;30.09;100286.00;5006831;28;20403;-54
2022/04/02 09:25:24;;;;;;;2.63;2.15;;;;;;;16.27;29.56;100287.34;5011208;28;20729;-51
2022/04/02 09:28:11;;;;;;;4.47;2.55;;;;;;;16.19;29.45;100291.91;5012962;28;20444;-51
2022/04/02 09:31:02;;;;;;;4.57;2.67;;;;;;;16.51;29.58;100280.78;5012696;28;20053;-49
2022/04/02 09:33:55;;;;;;;3.72;2.90;;;;;;;16.57;29.30;100284.97;4995502;28;20502;-51
2022/04/02 09:36:31;;;;;;;4.50;2.60;;;;;;;16.54;28.56;100294.94;5002581;28;20060;-50
2022/04/02 09:39:23;;;;;;;3.70;2.40;;;;;;;17.13;28.52;100284.84;5012434;28;20050;-49
2022/04/02 09:42:13;;;;;;;4.57;2.50;;;;;;;17.50;27.77;100295.81;5012304;28;20402;-52
2022/04/02 09:44:57;;;;;;;3.25;2.63;;;;;;;17.12;27.78;100299.31;5001739;28;20069;-52
2022/04/02 09:48:12;;;;;;;3.40;2.35;;;;;;;17.42;27.75;100300.44;5012163;28;20077;-52
2022/04/02 09:50:42;;;;;;;4.43;2.92;;;;;;;17.67;27.83;100300.25;5014412;28;20061;-53
2022/04/02 09:53:26;;;;;;;3.05;2.42;;;;;;;18.04;27.38;100302.72;5012137;28;20060;-51
2022/04/02 09:56:24;;;;;;;5.13;2.40;;;;;;;18.53;26.38;100296.47;5011026;28;20046;-55
2022/04/02 09:59:05;;;;;;;2.60;2.40;;;;;;;18.47;26.28;100309.22;5005397;28;20499;-49
2022/04/02 10:01:39;;;;;;;2.85;2.55;;;;;;;18.44;26.04;100305.16;4993264;28;20073;-49
2022/04/02 10:04:31;;;;;;;3.58;2.60;;;;;;;18.67;26.11;100304.41;4989346;28;20522;-53
2022/04/02 10:06:59;;;;;;;3.45;2.60;;;;;;;18.95;26.10;100306.16;4984864;28;20507;-53
2022/04/02 10:09:34;;;;;;;2.97;2.30;;;;;;;18.98;25.30;100313.84;4979956;28;20061;-52
2022/04/02 10:12:03;;;;;;;4.07;2.70;;;;;;;18.66;26.03;100306.38;4983515;28;20053;-50
2022/04/02 10:14:34;;;;;;;4.70;3.13;;;;;;;17.87;26.64;100315.22;4991718;28;20059;-49
2022/04/02 10:17:05;;;;;;;3.85;2.88;;;;;;;17.70;26.77;100305.16;4983613;28;20057;-49
2022/04/02 10:19:34;;;;;;;4.25;3.10;;;;;;;17.41;26.62;100312.09;4989730;28;20046;-50
2022/04/02 10:22:04;;;;;;;3.83;3.05;;;;;;;17.34;27.48;100315.53;4991980;28;20057;-54
2022/04/02 10:24:38;;;;;;;4.97;3.55;;;;;;;17.23;28.08;100314.47;4992184;28;20054;-53
2022/04/02 10:27:07;;;;;;;3.50;2.88;;;;;;;17.36;27.24;100301.09;4992414;28;20051;-50
2022/04/02 10:30:07;;;;;;;4.75;3.65;;;;;;;17.66;27.12;100307.06;4992149;28;20133;-54
2022/04/02 10:32:54;;;;;;;4.50;3.50;;;;;;;17.81;26.49;100316.66;4989759;28;20061;-49
2022/04/02 10:35:23;;;;;;;6.03;3.40;;;;;;;18.00;26.66;100307.47;4994242;28;20407;-50
2022/04/02 10:38:05;;;;;;;4.60;3.33;;;;;;;18.61;26.37;100312.34;4989021;28;20062;-48
2022/04/02 10:40:36;;;;;;;3.63;3.17;;;;;;;18.93;25.94;100309.34;4984699;28;20058;-48
2022/04/02 10:43:06;;;;;;;3.97;2.95;;;;;;;19.36;26.11;100315.75;4983896;28;20046;-48
2022/04/02 10:45:39;;;;;;;3.67;3.05;;;;;;;19.96;25.04;100314.25;4983426;28;20065;-50
2022/04/02 10:48:10;;;;;;;3.85;2.67;;;;;;;20.31;24.61;100313.09;4977276;28;20063;-49
2022/04/02 10:50:38;;;;;;;4.25;3.17;;;;;;;20.50;24.05;100312.94;4986216;28;20051;-49
2022/04/02 10:53:07;;;;;;;3.13;2.83;;;;;;;20.44;23.64;100317.31;4991460;28;20057;-49
2022/04/02 10:55:42;;;;;;;3.25;2.78;;;;;;;20.67;24.31;100309.50;4992812;28;20403;-49
2022/04/02 10:58:13;;;;;;;3.40;3.10;;;;;;;20.38;23.26;100319.66;4992625;28;20507;-50
2022/04/02 11:00:46;;;;;;;4.68;4.00;;;;;;;19.57;24.42;100318.09;4991812;28;20050;-49
2022/04/02 11:03:20;;;;;;;3.50;3.03;;;;;;;19.54;24.12;100312.38;5005116;28;20050;-51
2022/04/02 11:05:48;;;;;;;3.70;3.40;;;;;;;19.22;24.55;100321.16;5011024;28;20077;-50
2022/04/02 11:08:15;;;;;;;4.05;3.65;;;;;;;18.69;25.50;100326.56;5011107;28;20068;-49
2022/04/02 11:10:48;;;;;;;5.97;3.80;;;;;;;17.94;26.68;100325.84;5011936;28;20054;-50
2022/04/02 11:13:29;;;;;;;3.92;3.20;;;;;;;17.07;26.26;100324.91;5012186;28;20045;-54
2022/04/02 11:15:58;;;;;;;4.72;3.58;;;;;;;16.49;27.66;100326.13;5015127;28;20065;-49
2022/04/02 11:18:26;;;;;;;4.28;3.38;;;;;;;16.49;27.66;100331.75;5015922;28;20049;-52
2022/04/02 11:21:03;;;;;;;4.47;3.67;;;;;;;16.67;27.98;100323.81;5014890;28;20050;-49
2022/04/02 11:23:46;;;;;;;4.03;3.28;;;;;;;17.07;26.51;100331.34;5015922;28;20054;-52
2022/04/02 11:26:15;;;;;;;3.70;2.83;;;;;;;17.22;26.99;100329.72;5015217;28;20054;-50
2022/04/02 11:28:45;;;;;;;3.65;2.67;;;;;;;17.27;27.09;100323.81;5015527;28;20491;-48
2022/04/02 11:31:14;;;;;;;;;;;;;;;17.96;26.30;100331.94;5016132;28;20060;-49
2022/04/02 11:33:52;;;;;;;3.93;2.87;;;;;;;18.05;26.15;100327.69;5014197;28;19928;-49
2022/04/02 11:36:24;;;;;;;3.10;2.55;;;;;;;17.32;25.82;100331.97;5009822;28;20503;-49
2022/04/02 11:38:57;;;;;;;3.72;2.85;;;;;;;17.02;26.37;100328.81;5013961;28;20049;-48
2022/04/02 11:41:31;;;;;;;3.67;2.63;;;;;;;16.10;26.99;100337.03;5015351;28;20053;-48
2022/04/02 11:44:07;;;;;;;3.75;2.80;;;;;;;15.72;27.65;100334.66;5014787;28;20046;-49
2022/04/02 11:46:53;;;;;;;4.93;2.78;;;;;;;15.10;29.07;100345.00;5015246;28;20061;-48
2022/04/02 11:49:27;;;;;;;4.10;2.97;;;;;;;14.64;29.57;100344.22;5014024;28;20046;-49
2022/04/02 11:52:03;;;;;;;4.00;3.03;;;;;;;14.41;30.58;100344.56;5014273;28;20046;-49
2022/04/02 11:54:31;;;;;;;4.40;3.00;;;;;;;14.04;30.67;100354.75;5012929;28;20058;-53
2022/04/02 11:57:09;;;;;;;3.70;2.97;;;;;;;13.81;30.23;100364.25;5014611;28;20046;-48
2022/04/02 11:59:37;;;;;;;3.92;2.97;;;;;;;13.45;31.15;100353.59;5012819;28;20054;-49